Time;durP1;ratioP1;P1;durP2;ratioP2;P2;SDS_P1;SDS_P2;PMS_P1;PMS_P2;Temp;Humidity;BMP_temperature;BMP_pressure;BME280_temperature;BME280_humidity;BME280_pressure;Samples;Min_cycle;Max_cycle;Signal;HPM_P1;HPM_P2
2022/10/08 00:00:52;;;;;;;15.23;10.57;;;13.90;83.90;;;;;;5110817;28;20217;-61
2022/10/08 00:03:21;;;;;;;19.17;11.57;;;13.90;84.00;;;;;;5116604;28;20185;-60
2022/10/08 00:06:01;;;;;;;14.17;11.23;;;13.80;84.60;;;;;;5112082;28;20648;-60
2022/10/08 00:08:28;;;;;;;12.60;9.80;;;13.80;84.50;;;;;;5110613;28;20204;-61
2022/10/08 00:11:03;;;;;;;10.37;9.00;;;13.80;84.30;;;;;;5113753;28;20184;-61
2022/10/08 00:13:39;;;;;;;12.50;9.73;;;13.80;83.90;;;;;;5114419;28;20198;-61
2022/10/08 00:16:11;;;;;;;9.83;8.83;;;13.80;83.80;;;;;;5096585;28;20184;-61
2022/10/08 00:18:38;;;;;;;9.40;8.50;;;13.70;83.70;;;;;;5125203;27;20188;-61
2022/10/08 00:21:31;;;;;;;9.23;8.33;;;13.70;84.20;;;;;;5087802;28;20196;-61
2022/10/08 00:23:57;;;;;;;18.57;8.80;;;13.70;84.10;;;;;;5112617;28;20223;-61
2022/10/08 00:26:25;;;;;;;12.17;8.70;;;13.70;83.90;;;;;;5107965;28;20262;-61
2022/10/08 00:28:54;;;;;;;12.07;8.67;;;13.60;83.80;;;;;;5095579;28;20205;-62
2022/10/08 00:31:30;;;;;;;9.47;8.57;;;13.60;83.70;;;;;;5108622;28;20176;-61
2022/10/08 00:33:57;;;;;;;12.10;8.70;;;13.50;83.80;;;;;;5103803;28;20208;-60
2022/10/08 00:36:25;;;;;;;8.70;7.90;;;13.50;83.90;;;;;;5108226;28;20234;-60
2022/10/08 00:39:05;;;;;;;9.67;8.60;;;13.40;84.10;;;;;;5106500;28;20181;-61
2022/10/08 00:41:33;;;;;;;10.43;8.43;;;13.30;84.10;;;;;;5105865;28;20188;-60
2022/10/08 00:44:02;;;;;;;11.77;8.90;;;13.30;84.30;;;;;;5096947;28;20238;-61
2022/10/08 00:46:34;;;;;;;9.80;8.80;;;13.30;84.10;;;;;;5105613;28;20213;-61
2022/10/08 00:49:10;;;;;;;9.93;8.63;;;13.30;84.00;;;;;;5102273;28;20296;-61
2022/10/08 00:51:39;;;;;;;12.20;8.77;;;13.30;84.10;;;;;;5115218;28;20204;-61
2022/10/08 00:54:06;;;;;;;8.80;7.90;;;13.30;83.90;;;;;;5109807;28;20204;-61
2022/10/08 00:56:34;;;;;;;9.90;8.57;;;13.30;84.00;;;;;;5095075;28;20189;-61
2022/10/08 00:59:01;;;;;;;8.97;7.93;;;13.30;84.10;;;;;;5109417;28;20190;-61
2022/10/08 01:01:28;;;;;;;11.33;8.80;;;13.30;83.80;;;;;;5096640;28;20188;-61
2022/10/08 01:03:54;;;;;;;13.97;8.73;;;13.20;83.90;;;;;;5094470;28;20189;-62
2022/10/08 01:06:39;;;;;;;12.20;8.67;;;13.20;83.90;;;;;;5105418;28;20196;-61
2022/10/08 01:09:13;;;;;;;10.07;8.73;;;13.10;83.80;;;;;;5095592;28;20190;-61
2022/10/08 01:11:57;;;;;;;10.57;8.30;;;13.10;84.30;;;;;;5114136;28;20191;-61
2022/10/08 01:14:40;;;;;;;15.13;8.80;;;13.10;84.00;;;;;;5098126;28;20195;-61
2022/10/08 01:17:16;;;;;;;11.43;8.47;;;13.10;83.90;;;;;;5113444;28;20184;-61
2022/10/08 01:20:03;;;;;;;13.10;9.23;;;13.10;83.90;;;;;;5106479;28;20176;-61
2022/10/08 01:23:07;;;;;;;9.23;8.30;;;13.00;83.70;;;;;;5111038;28;20185;-61
2022/10/08 01:25:40;;;;;;;9.77;8.43;;;13.00;83.90;;;;;;5105742;28;20187;-61
2022/10/08 01:28:12;;;;;;;10.20;8.60;;;13.00;84.20;;;;;;5093617;28;20211;-61
2022/10/08 01:30:45;;;;;;;12.23;8.73;;;13.00;84.00;;;;;;5113350;28;20173;-61
2022/10/08 01:33:23;;;;;;;9.37;8.53;;;13.00;83.80;;;;;;5112168;28;20177;-61
2022/10/08 01:35:56;;;;;;;11.27;8.90;;;13.00;83.90;;;;;;5104174;28;20217;-60
2022/10/08 01:38:25;;;;;;;9.57;8.07;;;13.00;84.10;;;;;;5110425;28;20184;-64
2022/10/08 01:40:57;;;;;;;11.53;8.70;;;13.00;84.10;;;;;;5104196;28;20200;-61
2022/10/08 01:43:26;;;;;;;11.27;9.97;;;12.80;84.40;;;;;;5114234;28;20188;-61
2022/10/08 01:45:57;;;;;;;14.67;8.90;;;12.80;84.40;;;;;;5109599;28;20212;-61
2022/10/08 01:48:28;;;;;;;11.07;9.07;;;12.80;84.40;;;;;;5098985;28;20204;-61
2022/10/08 01:51:08;;;;;;;10.47;7.83;;;12.80;84.60;;;;;;5113259;27;20292;-60
2022/10/08 01:53:39;;;;;;;13.90;8.77;;;12.80;84.40;;;;;;5101111;28;20230;-61
2022/10/08 01:56:09;;;;;;;9.80;8.77;;;12.80;84.20;;;;;;5111018;28;20177;-61
2022/10/08 01:58:46;;;;;;;11.20;8.67;;;12.80;84.30;;;;;;5112449;28;20229;-61
2022/10/08 02:01:19;;;;;;;11.57;8.40;;;12.80;84.60;;;;;;5111732;28;20180;-60
2022/10/08 02:06:34;;;;;;;9.20;8.30;;;12.70;84.40;;;;;;5112366;28;20236;-60
2022/10/08 02:09:01;;;;;;;11.47;8.83;;;12.70;84.30;;;;;;5105796;28;20204;-60
2022/10/08 02:11:27;;;;;;;9.80;8.73;;;12.70;84.20;;;;;;5096116;28;20180;-62
2022/10/08 02:13:53;;;;;;;11.80;8.33;;;12.70;84.30;;;;;;5087755;28;20261;-62
2022/10/08 02:16:28;;;;;;;11.20;8.73;;;12.70;84.00;;;;;;5110457;28;20259;-61
2022/10/08 02:19:16;;;;;;;10.53;8.50;;;12.60;84.00;;;;;;5107848;28;20176;-61
2022/10/08 02:21:43;;;;;;;12.03;8.13;;;12.60;84.00;;;;;;5111532;28;20278;-61
2022/10/08 02:24:16;;;;;;;12.67;8.70;;;12.60;83.90;;;;;;5096060;28;20196;-61
2022/10/08 02:26:49;;;;;;;9.77;7.83;;;12.60;84.00;;;;;;5107442;28;20214;-61
2022/10/08 02:29:42;;;;;;;11.83;8.20;;;12.60;84.30;;;;;;5102589;28;20283;-61
2022/10/08 02:32:10;;;;;;;10.73;8.27;;;12.60;84.60;;;;;;5106177;28;20195;-61
2022/10/08 02:34:58;;;;;;;13.37;9.17;;;12.60;84.40;;;;;;5102663;28;20294;-61
2022/10/08 02:37:30;;;;;;;9.13;8.23;;;12.60;84.40;;;;;;5104180;28;20223;-61
2022/10/08 02:40:02;;;;;;;11.63;8.23;;;12.60;84.30;;;;;;5102339;28;20184;-60
2022/10/08 02:42:31;;;;;;;10.77;8.73;;;12.60;84.30;;;;;;5100581;28;20194;-61
2022/10/08 02:45:02;;;;;;;11.93;9.87;;;12.60;84.20;;;;;;5104427;28;20189;-61
2022/10/08 02:47:31;;;;;;;13.53;8.57;;;12.50;84.40;;;;;;5104305;28;20188;-61
2022/10/08 02:50:02;;;;;;;12.67;9.67;;;12.50;84.20;;;;;;5115450;28;20204;-61
2022/10/08 02:52:34;;;;;;;10.67;9.10;;;12.50;84.60;;;;;;5117497;28;20226;-61
2022/10/08 02:55:03;;;;;;;10.07;8.03;;;12.50;84.40;;;;;;5108413;28;20243;-60
2022/10/08 02:57:38;;;;;;;10.03;8.43;;;12.50;84.30;;;;;;5108666;28;20195;-60
2022/10/08 03:00:04;;;;;;;8.90;7.63;;;12.50;84.20;;;;;;5111584;28;20253;-61
2022/10/08 03:02:43;;;;;;;10.30;9.30;;;12.50;84.10;;;;;;5106173;28;20191;-60
2022/10/08 03:05:16;;;;;;;9.60;8.60;;;12.40;84.10;;;;;;5112446;28;20180;-60
2022/10/08 03:07:42;;;;;;;10.10;7.87;;;12.40;84.40;;;;;;5106673;28;20184;-60
2022/10/08 03:10:09;;;;;;;10.33;8.57;;;12.40;84.40;;;;;;5100589;28;20260;-61
2022/10/08 03:12:34;;;;;;;12.87;9.10;;;12.40;84.30;;;;;;5091668;28;20302;-61
2022/10/08 03:15:01;;;;;;;9.13;8.17;;;12.40;84.30;;;;;;5093401;28;20284;-61
2022/10/08 03:17:43;;;;;;;11.47;8.53;;;12.30;84.30;;;;;;5091205;28;20176;-61
2022/10/08 03:20:10;;;;;;;11.70;9.53;;;12.30;84.30;;;;;;5100608;28;20430;-61
2022/10/08 03:22:36;;;;;;;11.70;9.03;;;12.30;84.30;;;;;;5097014;28;20268;-61
2022/10/08 03:25:03;;;;;;;9.17;8.17;;;12.30;84.30;;;;;;5095863;28;20191;-61
2022/10/08 03:27:29;;;;;;;9.93;8.53;;;12.30;84.40;;;;;;5117647;27;20182;-61
2022/10/08 03:29:56;;;;;;;11.33;8.40;;;12.30;84.30;;;;;;5095248;28;20304;-61
2022/10/08 03:32:26;;;;;;;10.47;7.97;;;12.30;84.30;;;;;;5076627;28;20181;-61
2022/10/08 03:34:52;;;;;;;9.37;8.37;;;12.30;84.10;;;;;;5111130;28;20180;-60
2022/10/08 03:37:18;;;;;;;12.90;8.93;;;12.20;84.30;;;;;;5098748;28;20225;-61
2022/10/08 03:39:44;;;;;;;12.73;9.07;;;12.30;84.50;;;;;;5113617;27;20207;-61
2022/10/08 03:42:11;;;;;;;10.27;8.77;;;12.30;84.70;;;;;;5091639;28;20188;-60
2022/10/08 03:44:36;;;;;;;10.10;8.93;;;12.30;85.10;;;;;;5107450;28;20192;-61
2022/10/08 03:47:02;;;;;;;11.43;9.00;;;12.30;85.20;;;;;;5095176;28;20187;-60
2022/10/08 03:49:28;;;;;;;9.27;8.23;;;12.30;85.20;;;;;;5108937;28;20204;-60
2022/10/08 03:51:53;;;;;;;10.73;8.57;;;12.30;85.10;;;;;;5089831;28;20184;-61
2022/10/08 03:54:19;;;;;;;14.40;9.57;;;12.40;84.90;;;;;;5097581;28;20188;-61
2022/10/08 03:56:45;;;;;;;13.40;9.10;;;12.40;84.80;;;;;;5105987;28;20245;-61
2022/10/08 03:59:10;;;;;;;9.77;8.80;;;12.40;85.00;;;;;;5096553;28;20185;-62
2022/10/08 04:01:36;;;;;;;10.47;8.63;;;12.50;84.90;;;;;;5091807;28;20192;-61
2022/10/08 04:04:02;;;;;;;10.47;9.10;;;12.50;84.70;;;;;;5095303;28;20257;-61
2022/10/08 04:06:28;;;;;;;10.47;8.20;;;12.50;85.10;;;;;;5129320;27;20188;-62
2022/10/08 04:08:59;;;;;;;11.97;8.63;;;12.60;85.20;;;;;;5089249;28;20216;-61
2022/10/08 04:11:27;;;;;;;10.43;8.27;;;12.60;84.80;;;;;;5090141;28;20188;-60
2022/10/08 04:13:52;;;;;;;9.53;8.47;;;12.60;84.90;;;;;;5106038;28;20230;-60
2022/10/08 04:16:18;;;;;;;13.53;9.17;;;12.60;84.90;;;;;;5078053;28;20212;-61
2022/10/08 04:18:45;;;;;;;8.83;8.03;;;12.60;85.20;;;;;;5112338;28;20203;-61
2022/10/08 04:21:14;;;;;;;9.73;8.30;;;12.60;85.20;;;;;;5096218;28;20227;-61
2022/10/08 04:23:40;;;;;;;10.27;8.27;;;12.70;85.20;;;;;;5107839;28;20189;-60
2022/10/08 04:26:07;;;;;;;9.83;8.40;;;12.70;85.20;;;;;;5094256;28;20189;-60
2022/10/08 04:28:36;;;;;;;10.23;9.23;;;12.70;85.20;;;;;;5113156;28;20210;-61
2022/10/08 04:31:16;;;;;;;10.17;9.23;;;12.70;85.30;;;;;;5098012;28;20185;-61
2022/10/08 04:33:44;;;;;;;10.67;9.23;;;12.70;85.20;;;;;;5101809;28;20188;-61
2022/10/08 04:36:20;;;;;;;9.83;8.83;;;12.80;85.70;;;;;;5097016;28;20323;-59
2022/10/08 04:38:46;;;;;;;9.27;8.23;;;12.80;85.70;;;;;;5111951;28;20191;-59
2022/10/08 04:41:24;;;;;;;12.97;9.13;;;12.80;85.60;;;;;;5114361;28;20234;-60
2022/10/08 04:43:50;;;;;;;12.83;10.63;;;12.80;85.90;;;;;;5110196;28;20291;-60
2022/10/08 04:46:19;;;;;;;10.67;9.47;;;12.80;85.70;;;;;;5114041;28;20180;-60
2022/10/08 04:48:47;;;;;;;10.47;8.70;;;12.80;85.80;;;;;;5104806;28;20209;-60
2022/10/08 04:51:14;;;;;;;9.67;8.17;;;12.80;85.90;;;;;;5098387;28;20225;-60
2022/10/08 04:53:40;;;;;;;10.53;8.13;;;12.80;86.00;;;;;;5104490;28;20181;-61
2022/10/08 04:56:17;;;;;;;11.53;8.70;;;12.80;85.90;;;;;;5094575;28;20215;-60
2022/10/08 04:58:43;;;;;;;10.23;8.73;;;12.80;86.10;;;;;;5110976;28;20279;-60
2022/10/08 05:01:12;;;;;;;11.83;9.20;;;12.80;86.00;;;;;;5107953;28;20185;-60
2022/10/08 05:03:40;;;;;;;10.30;9.30;;;12.80;86.00;;;;;;5107716;28;20218;-60
2022/10/08 05:06:07;;;;;;;10.43;9.07;;;12.90;86.00;;;;;;5101020;28;20184;-60
2022/10/08 05:08:33;;;;;;;9.60;8.70;;;12.80;85.90;;;;;;5096154;28;20214;-61
2022/10/08 05:10:59;;;;;;;9.73;8.73;;;12.80;86.20;;;;;;5093365;28;20188;-60
2022/10/08 05:13:24;;;;;;;12.60;8.10;;;12.80;86.10;;;;;;5093605;28;20180;-60
2022/10/08 05:15:50;;;;;;;10.53;9.37;;;12.80;86.00;;;;;;5096853;28;20193;-61
2022/10/08 05:18:16;;;;;;;10.07;8.90;;;12.80;85.80;;;;;;5096997;28;20263;-60
2022/10/08 05:20:41;;;;;;;10.93;8.57;;;12.80;85.90;;;;;;5104479;28;20301;-61
2022/10/08 05:23:07;;;;;;;9.30;8.40;;;12.80;85.70;;;;;;5096327;28;20281;-60
2022/10/08 05:25:34;;;;;;;9.93;9.03;;;12.80;85.70;;;;;;5094591;28;20217;-60
2022/10/08 05:28:01;;;;;;;12.13;9.50;;;12.80;85.60;;;;;;5083607;28;20403;-60
2022/10/08 05:30:27;;;;;;;11.93;8.83;;;12.80;85.70;;;;;;5096714;28;20213;-60
2022/10/08 05:32:52;;;;;;;19.80;10.17;;;12.60;86.10;;;;;;5104317;28;20310;-60
2022/10/08 05:35:18;;;;;;;9.70;8.67;;;12.60;85.90;;;;;;5094816;28;20215;-60
2022/10/08 05:37:44;;;;;;;12.53;9.70;;;12.60;85.90;;;;;;5110930;28;20258;-60
2022/10/08 05:40:09;;;;;;;11.20;8.83;;;12.60;86.00;;;;;;5066711;28;20246;-60
2022/10/08 05:42:37;;;;;;;9.83;8.93;;;12.60;85.80;;;;;;5096280;28;20242;-60
2022/10/08 05:45:03;;;;;;;11.47;9.97;;;12.60;85.90;;;;;;5096590;28;20197;-60
2022/10/08 05:47:29;;;;;;;12.13;10.00;;;12.60;85.80;;;;;;5108763;28;20206;-59
2022/10/08 05:49:54;;;;;;;11.87;10.40;;;12.50;85.40;;;;;;5112930;28;20216;-59
2022/10/08 05:52:20;;;;;;;13.03;9.90;;;12.60;85.80;;;;;;5079178;28;20207;-61
2022/10/08 05:54:46;;;;;;;13.73;9.07;;;12.50;85.90;;;;;;5095855;28;20192;-60
2022/10/08 05:57:11;;;;;;;13.87;10.23;;;12.50;85.60;;;;;;5112542;28;20195;-60
2022/10/08 05:59:37;;;;;;;14.23;11.00;;;12.50;85.50;;;;;;5092136;28;20195;-60
2022/10/08 06:02:03;;;;;;;12.10;9.13;;;12.50;85.70;;;;;;5089842;28;20199;-60
2022/10/08 06:04:29;;;;;;;14.13;10.60;;;12.50;86.10;;;;;;5103897;28;20188;-60
2022/10/08 06:06:54;;;;;;;10.80;9.70;;;12.50;86.00;;;;;;5079309;28;20195;-60
2022/10/08 06:09:20;;;;;;;10.50;9.30;;;12.50;85.80;;;;;;5076839;28;20262;-60
2022/10/08 06:11:47;;;;;;;11.17;10.00;;;12.60;85.80;;;;;;5108989;28;20221;-59
2022/10/08 06:14:15;;;;;;;10.27;9.17;;;12.60;85.70;;;;;;5079590;28;20192;-59
2022/10/08 06:16:41;;;;;;;10.33;9.23;;;12.60;85.70;;;;;;5094909;28;20185;-59
2022/10/08 06:19:08;;;;;;;12.43;9.80;;;12.60;85.60;;;;;;5108154;28;20267;-59
2022/10/08 06:21:35;;;;;;;9.83;8.77;;;12.60;85.70;;;;;;5104891;28;20184;-60
2022/10/08 06:24:06;;;;;;;11.03;9.37;;;12.60;85.60;;;;;;5091610;28;20192;-59
2022/10/08 06:26:37;;;;;;;11.97;9.27;;;12.60;85.60;;;;;;5117969;28;20185;-59
2022/10/08 06:29:05;;;;;;;12.37;9.23;;;12.60;85.70;;;;;;5118525;28;20203;-59
2022/10/08 06:31:30;;;;;;;10.87;9.20;;;12.60;85.80;;;;;;5116521;28;20188;-60
2022/10/08 06:33:57;;;;;;;9.30;8.27;;;12.60;85.80;;;;;;5118084;28;20275;-59
2022/10/08 06:36:25;;;;;;;9.83;8.47;;;12.70;86.10;;;;;;5093415;28;20233;-58
2022/10/08 06:38:53;;;;;;;9.20;8.40;;;12.70;86.00;;;;;;5095311;28;20232;-59
2022/10/08 06:41:19;;;;;;;11.67;9.40;;;12.80;85.90;;;;;;5103992;28;20188;-60
2022/10/08 06:43:45;;;;;;;11.57;10.07;;;12.80;86.00;;;;;;5117785;28;20184;-59
2022/10/08 06:46:11;;;;;;;11.97;9.57;;;12.80;86.20;;;;;;5111819;28;20189;-59
2022/10/08 06:48:36;;;;;;;13.07;9.40;;;12.80;86.30;;;;;;5107006;28;20262;-60
2022/10/08 06:51:11;;;;;;;12.43;9.97;;;12.80;86.20;;;;;;5099121;28;20196;-59
2022/10/08 06:53:37;;;;;;;10.47;9.47;;;12.90;86.30;;;;;;5110025;28;20180;-60
2022/10/08 06:56:05;;;;;;;11.77;9.10;;;12.90;86.30;;;;;;5101395;28;20205;-59
2022/10/08 06:58:33;;;;;;;11.20;9.57;;;12.90;86.50;;;;;;5097752;28;20235;-59
2022/10/08 07:01:11;;;;;;;10.60;9.50;;;12.90;86.40;;;;;;5106479;28;20193;-59
2022/10/08 07:03:37;;;;;;;9.87;8.87;;;12.90;86.70;;;;;;5107809;28;20194;-61
2022/10/08 07:06:06;;;;;;;12.50;10.10;;;13.00;86.70;;;;;;5112700;28;20193;-61
2022/10/08 07:08:32;;;;;;;10.17;9.10;;;13.00;86.80;;;;;;5109425;28;20189;-61
2022/10/08 07:11:10;;;;;;;12.03;9.53;;;13.10;86.80;;;;;;5110612;28;20200;-61
2022/10/08 07:13:36;;;;;;;12.30;9.60;;;13.10;86.80;;;;;;5117191;28;20317;-62
2022/10/08 07:16:16;;;;;;;11.33;9.77;;;13.20;86.80;;;;;;5116491;28;20192;-62
2022/10/08 07:18:42;;;;;;;10.40;9.40;;;13.20;86.90;;;;;;5112952;28;20189;-61
2022/10/08 07:21:11;;;;;;;12.17;8.90;;;13.30;87.10;;;;;;5116187;28;20639;-61
2022/10/08 07:23:37;;;;;;;13.13;10.80;;;13.30;87.10;;;;;;5104324;28;20335;-61
2022/10/08 07:26:06;;;;;;;10.87;9.27;;;13.30;87.30;;;;;;5114499;28;20249;-61
2022/10/08 07:28:37;;;;;;;11.63;10.03;;;13.30;87.50;;;;;;5099208;28;20188;-61
2022/10/08 07:31:28;;;;;;;11.90;10.17;;;13.40;87.40;;;;;;5104428;28;20184;-61
2022/10/08 07:33:54;;;;;;;10.13;9.10;;;13.40;87.30;;;;;;5102015;28;20196;-61
2022/10/08 07:36:22;;;;;;;12.13;9.50;;;13.50;87.30;;;;;;5090131;28;20350;-61
2022/10/08 07:38:56;;;;;;;12.03;10.33;;;13.60;87.40;;;;;;5115379;28;20311;-62
2022/10/08 07:41:24;;;;;;;9.90;8.90;;;13.60;87.30;;;;;;5114155;28;20249;-61
2022/10/08 07:43:54;;;;;;;11.60;9.23;;;13.70;87.20;;;;;;5115564;28;20192;-59
2022/10/08 07:46:20;;;;;;;10.53;8.83;;;13.70;87.40;;;;;;5098717;28;20192;-59
2022/10/08 07:48:46;;;;;;;11.57;9.17;;;13.80;87.30;;;;;;5107576;28;20219;-59
2022/10/08 07:51:14;;;;;;;9.77;8.83;;;13.80;87.60;;;;;;5095669;28;20218;-59
2022/10/08 07:53:41;;;;;;;10.00;8.73;;;13.80;87.40;;;;;;5116052;28;20188;-59
2022/10/08 07:56:08;;;;;;;12.70;9.53;;;13.90;87.40;;;;;;5095859;28;20284;-59
2022/10/08 07:58:35;;;;;;;11.33;9.50;;;13.90;87.50;;;;;;5125479;27;20297;-59
2022/10/08 08:01:03;;;;;;;11.07;8.60;;;13.90;87.40;;;;;;5106147;28;20200;-58
2022/10/08 08:03:29;;;;;;;10.33;8.90;;;13.90;87.40;;;;;;5116242;28;20185;-59
2022/10/08 08:06:08;;;;;;;15.37;8.97;;;14.00;87.40;;;;;;5115441;28;20188;-59
2022/10/08 08:08:35;;;;;;;11.47;8.80;;;14.10;87.50;;;;;;5115981;28;20252;-58
2022/10/08 08:11:02;;;;;;;10.37;9.27;;;14.20;87.50;;;;;;5095174;28;20230;-58
2022/10/08 08:13:29;;;;;;;10.63;8.70;;;14.20;87.60;;;;;;5094378;28;20193;-58
2022/10/08 08:15:56;;;;;;;9.37;7.80;;;14.30;87.30;;;;;;5094291;28;20188;-63
2022/10/08 08:18:22;;;;;;;10.40;9.30;;;14.30;87.00;;;;;;5098462;28;20224;-61
2022/10/08 08:20:47;;;;;;;13.57;9.67;;;14.40;86.80;;;;;;5109946;28;20223;-61
2022/10/08 08:23:13;;;;;;;9.43;8.27;;;14.50;86.90;;;;;;5089243;28;20289;-58
2022/10/08 08:25:38;;;;;;;14.50;9.23;;;14.50;86.60;;;;;;5095889;28;20285;-59
2022/10/08 08:28:04;;;;;;;8.87;7.87;;;14.50;86.40;;;;;;5111297;28;20253;-59
2022/10/08 08:30:30;;;;;;;11.23;9.17;;;14.60;86.30;;;;;;5089326;28;20255;-59
2022/10/08 08:32:57;;;;;;;10.13;9.00;;;14.60;86.40;;;;;;5107144;28;20182;-59
2022/10/08 08:35:22;;;;;;;12.33;9.20;;;14.70;86.30;;;;;;5096380;28;20188;-59
2022/10/08 08:37:48;;;;;;;9.47;8.47;;;14.70;86.20;;;;;;5079683;28;20189;-59
2022/10/08 08:40:14;;;;;;;10.50;9.23;;;14.80;86.10;;;;;;5112953;28;20740;-59
2022/10/08 08:42:47;;;;;;;11.03;8.40;;;14.80;86.20;;;;;;5097135;28;20193;-59
2022/10/08 08:45:24;;;;;;;8.63;7.73;;;14.80;86.20;;;;;;5113654;28;20181;-59
2022/10/08 08:48:04;;;;;;;8.50;7.70;;;14.90;86.00;;;;;;5112085;28;20185;-59
2022/10/08 08:50:36;;;;;;;10.53;8.97;;;15.00;85.80;;;;;;5110633;28;20291;-59
2022/10/08 08:53:03;;;;;;;10.97;8.37;;;15.10;85.80;;;;;;5113921;28;20189;-59
2022/10/08 08:55:36;;;;;;;8.47;7.53;;;15.10;85.70;;;;;;5092653;28;20194;-59
2022/10/08 08:58:26;;;;;;;7.53;6.83;;;15.20;85.40;;;;;;5110798;28;20189;-59
2022/10/08 09:00:59;;;;;;;9.37;8.37;;;15.30;85.30;;;;;;5108810;28;20204;-61
2022/10/08 09:03:39;;;;;;;11.57;8.83;;;15.30;85.00;;;;;;5114426;28;20212;-60
2022/10/08 09:06:12;;;;;;;8.63;7.83;;;15.40;84.20;;;;;;5109261;28;20192;-61
2022/10/08 09:08:59;;;;;;;9.67;8.77;;;15.60;82.80;;;;;;5101667;28;22127;-59
2022/10/08 09:11:27;;;;;;;9.37;8.47;;;15.80;81.50;;;;;;5112776;28;20195;-60
2022/10/08 09:14:26;;;;;;;10.83;8.23;;;15.90;81.80;;;;;;5097916;28;20211;-59
2022/10/08 09:16:52;;;;;;;11.40;9.03;;;16.00;81.30;;;;;;5107440;28;20188;-59
2022/10/08 09:19:17;;;;;;;12.33;7.93;;;16.00;81.00;;;;;;5096496;28;20206;-59
2022/10/08 09:21:43;;;;;;;8.77;7.87;;;16.00;81.20;;;;;;5096718;28;20225;-59
2022/10/08 09:24:09;;;;;;;9.97;8.80;;;16.10;79.60;;;;;;5096727;28;20200;-59
2022/10/08 09:26:35;;;;;;;12.43;8.47;;;16.20;78.80;;;;;;5097434;28;20218;-59
2022/10/08 09:29:04;;;;;;;10.50;8.47;;;16.30;79.50;;;;;;5113704;28;20212;-59
2022/10/08 09:31:38;;;;;;;8.40;7.50;;;16.30;78.70;;;;;;5110459;28;20193;-59
2022/10/08 09:34:16;;;;;;;9.07;8.17;;;16.40;78.80;;;;;;5102229;28;20211;-59
2022/10/08 09:36:51;;;;;;;8.07;7.23;;;16.60;77.60;;;;;;5097384;28;20208;-59
2022/10/08 09:39:24;;;;;;;9.27;8.10;;;16.70;78.60;;;;;;5106658;28;20262;-59
2022/10/08 09:42:18;;;;;;;9.57;7.80;;;16.80;77.60;;;;;;5100186;28;20191;-59
2022/10/08 09:44:57;;;;;;;12.53;7.40;;;16.80;77.80;;;;;;5113927;28;20192;-59
2022/10/08 09:47:24;;;;;;;9.40;7.53;;;17.00;77.80;;;;;;5108103;28;20184;-59
2022/10/08 09:50:19;;;;;;;8.33;7.23;;;17.10;78.00;;;;;;5107232;28;20228;-60
2022/10/08 09:52:48;;;;;;;10.93;7.90;;;17.30;78.80;;;;;;5111504;28;20176;-61
2022/10/08 09:55:29;;;;;;;9.83;8.57;;;17.40;78.00;;;;;;5114828;28;20188;-61
2022/10/08 09:58:02;;;;;;;8.63;7.60;;;17.50;78.10;;;;;;5098926;28;20190;-61
2022/10/08 10:00:38;;;;;;;9.37;8.43;;;17.60;76.60;;;;;;5112853;28;20207;-62
2022/10/08 10:03:06;;;;;;;7.97;7.27;;;17.60;75.30;;;;;;5092080;28;20203;-61
2022/10/08 10:05:36;;;;;;;8.00;7.20;;;17.70;76.70;;;;;;5109942;28;20192;-61
2022/10/08 10:08:02;;;;;;;13.03;7.53;;;17.80;76.60;;;;;;5103475;28;20253;-61
2022/10/08 10:10:33;;;;;;;8.53;7.73;;;17.80;75.40;;;;;;5102611;28;20214;-62
2022/10/08 10:13:03;;;;;;;9.13;8.20;;;17.90;75.10;;;;;;5106900;28;20246;-62
2022/10/08 10:15:45;;;;;;;9.23;8.23;;;17.90;73.60;;;;;;5104731;28;20218;-62
2022/10/08 10:18:15;;;;;;;10.83;8.80;;;18.00;73.30;;;;;;5112932;28;20279;-60
2022/10/08 10:20:47;;;;;;;8.30;7.50;;;18.10;74.60;;;;;;5113920;28;20200;-62
2022/10/08 10:23:27;;;;;;;10.20;8.40;;;18.20;74.80;;;;;;5108201;28;20200;-62
2022/10/08 10:26:14;;;;;;;10.10;7.30;;;18.30;73.30;;;;;;5114312;28;20181;-62
2022/10/08 10:28:54;;;;;;;7.57;6.87;;;18.30;73.90;;;;;;5097409;28;20278;-62
2022/10/08 10:31:26;;;;;;;10.53;7.80;;;18.40;73.80;;;;;;5094487;28;20184;-61
2022/10/08 10:34:16;;;;;;;8.67;7.07;;;18.40;73.50;;;;;;5111767;28;20199;-60
2022/10/08 10:37:00;;;;;;;8.87;6.30;;;18.40;71.80;;;;;;5100055;28;20216;-59
2022/10/08 10:39:56;;;;;;;7.13;6.43;;;18.50;73.70;;;;;;5112264;28;20374;-59
2022/10/08 10:43:16;;;;;;;10.30;7.83;;;18.70;74.70;;;;;;5103942;28;20224;-60
2022/10/08 10:45:49;;;;;;;9.37;6.77;;;18.80;73.90;;;;;;5051634;28;20223;-60
2022/10/08 10:48:14;;;;;;;10.03;7.43;;;18.80;73.30;;;;;;5094743;28;20198;-60
2022/10/08 10:51:01;;;;;;;7.57;6.87;;;18.90;73.70;;;;;;5108341;28;20212;-60
2022/10/08 10:53:33;;;;;;;7.43;6.60;;;19.00;72.40;;;;;;5120581;28;20195;-60
2022/10/08 10:56:19;;;;;;;7.63;6.23;;;19.00;71.10;;;;;;5099166;28;20193;-60
2022/10/08 10:59:22;;;;;;;9.50;7.00;;;19.00;71.40;;;;;;5108047;28;20222;-60
2022/10/08 11:02:03;;;;;;;10.17;6.90;;;19.10;71.10;;;;;;5092962;28;20216;-61
2022/10/08 11:04:37;;;;;;;6.67;5.80;;;19.30;70.50;;;;;;5112605;28;20184;-61
2022/10/08 11:07:07;;;;;;;6.97;6.27;;;19.30;70.60;;;;;;5110682;28;20189;-61
2022/10/08 11:09:43;;;;;;;9.33;6.93;;;19.40;69.50;;;;;;5098893;28;20204;-61
2022/10/08 11:12:46;;;;;;;9.40;6.57;;;19.50;72.20;;;;;;5096542;28;20177;-61
2022/10/08 11:15:31;;;;;;;6.97;5.93;;;19.50;70.90;;;;;;5107506;28;20176;-61
2022/10/08 11:18:30;;;;;;;10.93;6.57;;;19.60;71.70;;;;;;5112267;27;20238;-61
2022/10/08 11:21:24;;;;;;;7.13;6.20;;;19.70;71.90;;;;;;5105826;28;20219;-61
2022/10/08 11:24:04;;;;;;;7.13;5.77;;;19.70;70.90;;;;;;5104952;28;20180;-61
2022/10/08 11:26:48;;;;;;;6.97;6.30;;;19.90;70.10;;;;;;5100734;28;20189;-62
2022/10/08 11:29:18;;;;;;;7.47;6.03;;;20.00;71.20;;;;;;5105983;28;20279;-61
2022/10/08 11:31:49;;;;;;;9.40;6.57;;;20.10;71.00;;;;;;5113422;27;20188;-61
2022/10/08 11:34:29;;;;;;;6.83;6.23;;;20.20;70.80;;;;;;5103736;27;20181;-61
2022/10/08 11:37:17;;;;;;;6.40;5.73;;;20.30;69.00;;;;;;5114490;28;20168;-61
2022/10/08 11:39:52;;;;;;;9.30;5.70;;;20.50;70.60;;;;;;5074853;27;20279;-61
2022/10/08 11:42:23;;;;;;;8.73;6.03;;;20.70;67.80;;;;;;5116224;28;20273;-61
2022/10/08 11:44:49;;;;;;;6.83;5.83;;;20.80;67.50;;;;;;5112567;27;20181;-61
2022/10/08 11:47:40;;;;;;;7.40;5.90;;;20.90;68.50;;;;;;5098678;28;20329;-61
2022/10/08 11:50:25;;;;;;;8.73;6.83;;;20.90;66.40;;;;;;5114910;28;20200;-62
2022/10/08 11:52:55;;;;;;;7.60;5.93;;;21.10;67.20;;;;;;5113754;27;20191;-62
2022/10/08 11:55:31;;;;;;;9.10;6.77;;;21.00;66.00;;;;;;5109412;28;20184;-61
2022/10/08 11:58:04;;;;;;;6.87;6.23;;;21.20;65.40;;;;;;5116733;28;20176;-62
2022/10/08 12:00:42;;;;;;;7.80;6.60;;;21.20;65.20;;;;;;5101032;28;20185;-61
2022/10/08 12:03:28;;;;;;;6.90;6.27;;;21.40;65.00;;;;;;5115052;28;20184;-61
2022/10/08 12:05:58;;;;;;;7.60;6.03;;;21.50;64.70;;;;;;5116361;28;20176;-61
2022/10/08 12:08:46;;;;;;;7.60;6.80;;;21.70;65.20;;;;;;5116872;27;20183;-61
2022/10/08 12:11:30;;;;;;;7.73;6.90;;;21.70;64.10;;;;;;5110486;28;20210;-61
2022/10/08 12:14:14;;;;;;;7.20;6.17;;;21.80;64.40;;;;;;5115426;28;20198;-61
2022/10/08 12:16:55;;;;;;;6.93;6.30;;;21.90;63.20;;;;;;5096005;28;20226;-61
2022/10/08 12:19:33;;;;;;;8.67;5.80;;;22.00;63.30;;;;;;5110095;27;20177;-61
2022/10/08 12:22:15;;;;;;;7.27;6.60;;;22.20;62.20;;;;;;5111163;28;20188;-61
2022/10/08 12:24:43;;;;;;;12.00;5.97;;;22.20;61.00;;;;;;5113516;27;20258;-61
2022/10/08 12:27:29;;;;;;;6.67;5.97;;;22.40;63.10;;;;;;5113461;28;20184;-61
2022/10/08 12:30:02;;;;;;;6.83;5.50;;;22.50;60.50;;;;;;5111775;28;20288;-61
2022/10/08 12:32:51;;;;;;;7.90;5.97;;;22.60;61.00;;;;;;5113166;27;20208;-61
2022/10/08 12:35:28;;;;;;;6.90;6.23;;;22.90;61.90;;;;;;5111879;27;20173;-61
2022/10/08 12:38:06;;;;;;;9.33;5.53;;;22.90;59.30;;;;;;5114183;27;20176;-60
2022/10/08 12:41:06;;;;;;;7.60;5.97;;;23.00;60.20;;;;;;5120004;27;20223;-62
2022/10/08 12:44:08;;;;;;;9.23;5.63;;;22.80;59.10;;;;;;5105147;28;20252;-62
2022/10/08 12:46:47;;;;;;;9.50;5.60;;;23.10;61.70;;;;;;5115876;27;20196;-62
2022/10/08 12:49:44;;;;;;;6.50;5.23;;;23.50;61.30;;;;;;5112365;28;20303;-63
2022/10/08 12:52:17;;;;;;;6.97;5.83;;;23.50;59.90;;;;;;5105921;28;20231;-62
2022/10/08 12:54:58;;;;;;;5.40;4.80;;;23.50;59.80;;;;;;5105066;28;20192;-62
2022/10/08 12:57:32;;;;;;;6.77;5.83;;;23.80;61.00;;;;;;5107221;28;20182;-62
2022/10/08 12:59:59;;;;;;;7.57;5.60;;;23.90;59.10;;;;;;5100926;28;20185;-62
2022/10/08 13:02:31;;;;;;;6.77;5.50;;;23.80;58.40;;;;;;5093383;28;20188;-62
2022/10/08 13:04:57;;;;;;;7.60;5.27;;;23.50;59.40;;;;;;5104477;28;20275;-62
2022/10/08 13:07:29;;;;;;;5.93;5.33;;;23.30;59.50;;;;;;5092410;28;20283;-62
2022/10/08 13:09:57;;;;;;;6.50;5.10;;;23.30;60.90;;;;;;5105056;28;20204;-63